Time;durP1;ratioP1;P1;durP2;ratioP2;P2;SDS_P1;SDS_P2;PMS_P1;PMS_P2;Temp;Humidity;BMP_temperature;BMP_pressure;BME280_temperature;BME280_humidity;BME280_pressure;Samples;Min_cycle;Max_cycle;Signal;HPM_P1;HPM_P2
2022/04/07 00:01:00;;;;;;;;;;;;;;;10.47;62.64;99155.03;5052155;28;20705;-75
2022/04/07 00:03:25;;;;;;;;;;;;;;;10.46;62.48;99158.56;5053880;28;19924;-78
2022/04/07 00:05:51;;;;;;;;;;;;;;;10.41;62.67;99150.97;5037270;28;19924;-78
2022/04/07 00:08:16;;;;;;;;;;;;;;;10.51;62.61;99155.75;5056806;28;19921;-75
2022/04/07 00:10:42;;;;;;;;;;;;;;;10.29;63.21;99153.28;5053100;28;19931;-77
2022/04/07 00:13:07;;;;;;;;;;;;;;;10.33;63.13;99141.88;5061603;28;20030;-78
2022/04/07 00:15:32;;;;;;;;;;;;;;;10.22;62.65;99142.38;5063353;28;19959;-75
2022/04/07 00:17:58;;;;;;;;;;;;;;;10.27;63.08;99132.63;5055001;28;20039;-78
2022/04/07 00:20:24;;;;;;;;;;;;;;;10.39;61.69;99141.59;5062626;28;19925;-78
2022/04/07 00:22:50;;;;;;;;;;;;;;;10.50;63.65;99141.06;5036082;28;19955;-78
2022/04/07 00:25:15;;;;;;;;;;;;;;;10.30;66.53;99135.06;5046652;28;19990;-78
2022/04/07 00:27:41;;;;;;;;;;;;;;;10.34;65.58;99128.81;5035216;28;20377;-77
2022/04/07 00:30:06;;;;;;;;;;;;;;;10.08;65.45;99111.00;5053650;28;19939;-78
2022/04/07 00:32:31;;;;;;;;;;;;;;;10.08;64.62;99118.78;5045150;28;20356;-78
2022/04/07 00:34:57;;;;;;;;;;;;;;;10.29;63.92;99117.81;5057446;28;19932;-78
2022/04/07 00:37:23;;;;;;;;;;;;;;;10.37;63.24;99117.47;5034363;28;19955;-78
2022/04/07 00:39:49;;;;;;;;;;;;;;;10.29;63.78;99104.81;5052462;28;20372;-77
2022/04/07 00:42:15;;;;;;;;;;;;;;;10.22;62.96;99106.03;5049540;28;20489;-78
2022/04/07 00:44:40;;;;;;;;;;;;;;;10.29;61.71;99091.00;5036622;28;19970;-77
2022/04/07 00:47:07;;;;;;;;;;;;;;;10.33;60.79;99097.75;5062458;28;19931;-78
2022/04/07 00:49:33;;;;;;;;;;;;;;;10.25;61.20;99092.91;5059142;28;19927;-75
2022/04/07 00:51:58;;;;;;;;;;;;;;;10.31;60.11;99078.81;5054138;28;19924;-75
2022/04/07 00:54:23;;;;;;;;;;;;;;;10.39;59.37;99082.72;5065452;28;20439;-75
2022/04/07 00:56:49;;;;;;;;;;;;;;;10.29;59.97;99078.88;5050136;28;20004;-77
2022/04/07 00:59:17;;;;;;;;;;;;;;;10.30;60.25;99079.72;5051288;28;19947;-77
2022/04/07 01:01:43;;;;;;;;;;;;;;;10.40;60.24;99066.22;5060040;28;19920;-77
2022/04/07 01:04:09;;;;;;;;;;;;;;;10.30;60.92;99069.34;5053565;28;19921;-75
2022/04/07 01:06:34;;;;;;;;;;;;;;;10.35;60.78;99057.81;5050487;28;20384;-77
2022/04/07 01:09:00;;;;;;;;;;;;;;;10.19;60.32;99054.28;5055352;28;19928;-75
2022/04/07 01:11:26;;;;;;;;;;;;;;;10.43;60.82;99053.09;5054164;28;19925;-75
2022/04/07 01:13:52;;;;;;;;;;;;;;;10.38;61.83;99051.63;5059466;28;19923;-77
2022/04/07 01:16:18;;;;;;;;;;;;;;;10.32;61.36;99041.53;5051017;28;19925;-77
2022/04/07 01:18:46;;;;;;;;;;;;;;;10.36;61.64;99036.16;5053182;28;19931;-77
2022/04/07 01:21:12;;;;;;;;;;;;;;;10.27;62.29;99036.59;5055349;28;20181;-77
2022/04/07 01:23:38;;;;;;;;;;;;;;;10.25;62.06;99034.97;5057293;28;20384;-77
2022/04/07 01:26:04;;;;;;;;;;;;;;;10.25;62.00;99043.63;5055220;28;19971;-75
2022/04/07 01:28:30;;;;;;;;;;;;;;;10.23;62.73;99042.81;5056403;28;20389;-77
2022/04/07 01:30:55;;;;;;;;;;;;;;;10.29;63.10;99028.72;5050681;28;19956;-75
2022/04/07 01:33:21;;;;;;;;;;;;;;;10.12;62.77;99028.66;5051843;28;19946;-77
2022/04/07 01:35:46;;;;;;;;;;;;;;;10.28;63.18;99025.31;5045836;28;19924;-77
2022/04/07 01:38:12;;;;;;;;;;;;;;;10.13;62.74;99023.44;5027564;28;20385;-75
2022/04/07 01:40:38;;;;;;;;;;;;;;;10.29;62.93;99016.59;5045984;28;19979;-78
2022/04/07 01:43:07;;;;;;;;;;;;;;;10.04;63.14;99000.50;5050184;28;20011;-78
2022/04/07 01:45:34;;;;;;;;;;;;;;;10.23;62.35;99001.31;5060105;28;19924;-75
2022/04/07 01:48:01;;;;;;;;;;;;;;;10.35;61.71;98992.94;5058901;28;20011;-78
2022/04/07 01:50:28;;;;;;;;;;;;;;;10.27;61.52;98987.28;5045524;28;19931;-77
2022/04/07 01:52:53;;;;;;;;;;;;;;;10.33;62.12;98984.41;5048121;28;19925;-77
2022/04/07 01:55:19;;;;;;;;;;;;;;;10.36;61.97;98978.22;5055420;28;19946;-77
2022/04/07 01:57:44;;;;;;;;;;;;;;;10.17;62.20;98980.00;5051967;28;20412;-78
2022/04/07 02:00:10;;;;;;;;;;;;;;;10.13;62.25;98981.06;5060704;28;20024;-75
2022/04/07 02:02:35;;;;;;;;;;;;;;;10.34;61.25;98982.66;5052432;28;20007;-75
2022/04/07 02:05:08;;;;;;;;;;;;;;;10.18;62.10;98985.13;5052159;28;19920;-77
2022/04/07 02:07:33;;;;;;;;;;;;;;;10.35;61.39;98976.50;5048983;28;19929;-77
2022/04/07 02:09:59;;;;;;;;;;;;;;;10.32;61.35;98977.50;5050700;28;19924;-77
2022/04/07 02:12:29;;;;;;;;;;;;;;;10.35;61.14;98966.97;5046576;28;19979;-77
2022/04/07 02:14:54;;;;;;;;;;;;;;;10.32;60.55;98964.53;5062956;28;20464;-77
2022/04/07 02:17:22;;;;;;;;;;;;;;;10.17;61.03;98965.28;5051737;28;19929;-75
2022/04/07 02:19:52;;;;;;;;;;;;;;;10.34;60.32;98961.88;5050994;28;20007;-77
2022/04/07 02:22:19;;;;;;;;;;;;;;;10.41;60.23;98969.28;5059309;28;19921;-78
2022/04/07 02:24:44;;;;;;;;;;;;;;;10.23;60.62;98971.91;5055532;28;19917;-75
2022/04/07 02:27:09;;;;;;;;;;;;;;;10.36;60.35;98963.47;5059746;28;19913;-77
2022/04/07 02:29:35;;;;;;;;;;;;;;;10.26;60.99;98964.81;5044803;28;19925;-77
2022/04/07 02:32:00;;;;;;;;;;;;;;;10.47;60.25;98949.97;5042892;28;19921;-77
2022/04/07 02:34:26;;;;;;;;;;;;;;;10.32;62.68;98954.16;5046943;28;19952;-77
2022/04/07 02:36:51;;;;;;;;;;;;;;;10.30;62.84;98947.34;5046511;28;20523;-77
2022/04/07 02:39:16;;;;;;;;;;;;;;;10.28;63.80;98954.38;5038301;28;19932;-78
2022/04/07 02:41:41;;;;;;;;;;;;;;;10.14;63.18;98947.25;5053912;28;20396;-75
2022/04/07 02:44:07;;;;;;;;;;;;;;;10.31;62.98;98941.28;5033257;28;19925;-77
2022/04/07 02:46:32;;;;;;;;;;;;;;;10.22;63.82;98947.75;5058008;28;19932;-78
2022/04/07 02:48:57;;;;;;;;;;;;;;;10.47;61.87;98929.19;5033087;28;19946;-78
2022/04/07 02:51:24;;;;;;;;;;;;;;;10.12;62.93;98927.50;5051875;28;19924;-78
2022/04/07 02:53:49;;;;;;;;;;;;;;;10.13;62.69;98926.59;5051411;28;19921;-77
2022/04/07 02:56:14;;;;;;;;;;;;;;;10.35;62.54;98915.06;5046153;28;20366;-78
2022/04/07 02:58:40;;;;;;;;;;;;;;;10.34;62.37;98903.00;5052403;28;19929;-78
2022/04/07 03:01:05;;;;;;;;;;;;;;;10.34;62.32;98903.00;5049748;28;19925;-77
2022/04/07 03:03:30;;;;;;;;;;;;;;;10.02;62.42;98898.56;5050576;28;20313;-75
2022/04/07 03:05:55;;;;;;;;;;;;;;;10.21;62.11;98888.97;5013571;28;19929;-77
2022/04/07 03:08:21;;;;;;;;;;;;;;;10.43;62.70;98896.53;5052292;28;19924;-77
2022/04/07 03:10:46;;;;;;;;;;;;;;;10.43;61.92;98899.13;5048471;28;19924;-75
2022/04/07 03:13:11;;;;;;;;;;;;;;;10.26;62.29;98899.94;5056887;28;19924;-75
2022/04/07 03:15:37;;;;;;;;;;;;;;;10.42;62.47;98900.03;5057934;28;20405;-78
2022/04/07 03:18:02;;;;;;;;;;;;;;;10.37;61.70;98891.66;5062277;28;20339;-75
2022/04/07 03:20:27;;;;;;;;;;;;;;;10.31;61.73;98891.97;5054088;28;19925;-77
2022/04/07 03:22:52;;;;;;;;;;;;;;;10.39;62.26;98901.03;5056475;28;20723;-77
2022/04/07 03:25:18;;;;;;;;;;;;;;;10.47;62.21;98888.50;5058340;28;19982;-75
2022/04/07 03:27:43;;;;;;;;;;;;;;;10.38;62.32;98876.00;5057709;28;19939;-78
2022/04/07 03:30:09;;;;;;;;;;;;;;;10.38;62.07;98875.16;5065300;28;19917;-78
2022/04/07 03:32:34;;;;;;;;;;;;;;;10.41;62.06;98854.22;5055294;28;20336;-78
2022/04/07 03:34:59;;;;;;;;;;;;;;;10.37;61.53;98848.34;5059660;28;20478;-78
2022/04/07 03:37:25;;;;;;;;;;;;;;;10.48;61.73;98855.59;5051414;28;19932;-75
2022/04/07 03:39:50;;;;;;;;;;;;;;;10.30;62.25;98841.81;5056155;28;19921;-75
2022/04/07 03:42:16;;;;;;;;;;;;;;;10.20;62.40;98837.97;5054425;28;19921;-77
2022/04/07 03:44:41;;;;;;;;;;;;;;;10.47;62.00;98831.41;5057970;28;19925;-77
2022/04/07 03:47:06;;;;;;;;;;;;;;;10.42;62.47;98823.03;5031443;28;19921;-77
2022/04/07 03:49:32;;;;;;;;;;;;;;;10.34;62.79;98824.31;5052042;28;19964;-77
2022/04/07 03:51:57;;;;;;;;;;;;;;;10.20;63.02;98817.22;5034427;28;19924;-75
2022/04/07 03:54:23;;;;;;;;;;;;;;;10.32;62.87;98819.19;5057354;28;19921;-77
2022/04/07 03:56:48;;;;;;;;;;;;;;;10.25;63.29;98810.06;5056239;28;20377;-77
2022/04/07 03:59:14;;;;;;;;;;;;;;;10.54;62.82;98794.75;5050555;28;20007;-77
2022/04/07 04:01:40;;;;;;;;;;;;;;;10.62;62.37;98777.00;5056608;28;19928;-75
2022/04/07 04:04:05;;;;;;;;;;;;;;;10.33;63.27;98775.94;5036943;28;19995;-78
2022/04/07 04:06:32;;;;;;;;;;;;;;;10.49;62.72;98769.03;5050319;28;19921;-78
2022/04/07 04:08:57;;;;;;;;;;;;;;;10.26;63.52;98778.00;5056740;28;19970;-78
2022/04/07 04:11:23;;;;;;;;;;;;;;;10.36;64.22;98771.41;5051927;28;19925;-78
2022/04/07 04:13:48;;;;;;;;;;;;;;;10.36;63.66;98773.19;5049739;28;19925;-78
2022/04/07 04:16:15;;;;;;;;;;;;;;;10.29;64.26;98766.63;5052600;28;19920;-78
2022/04/07 04:18:41;;;;;;;;;;;;;;;10.18;64.21;98754.19;5043777;28;19921;-77
2022/04/07 04:21:06;;;;;;;;;;;;;;;10.39;64.01;98755.69;5060384;28;19920;-78
2022/04/07 04:23:32;;;;;;;;;;;;;;;10.53;63.41;98746.31;5066471;28;19969;-78
2022/04/07 04:25:58;;;;;;;;;;;;;;;10.38;64.16;98745.38;5062832;28;20343;-77
2022/04/07 04:28:23;;;;;;;;;;;;;;;10.36;63.81;98735.09;5053579;28;19925;-75
2022/04/07 04:30:48;;;;;;;;;;;;;;;10.36;64.22;98736.84;5057326;28;20270;-77
2022/04/07 04:33:14;;;;;;;;;;;;;;;10.32;64.30;98727.53;5049656;28;20003;-77
2022/04/07 04:35:39;;;;;;;;;;;;;;;10.41;63.61;98716.66;5059893;28;20008;-77
2022/04/07 04:38:04;;;;;;;;;;;;;;;10.35;64.12;98709.19;5032664;28;19987;-77
2022/04/07 04:40:30;;;;;;;;;;;;;;;10.41;63.66;98701.94;5052620;28;19984;-78
2022/04/07 04:42:57;;;;;;;;;;;;;;;10.36;63.84;98690.97;5050730;28;20120;-77
2022/04/07 04:45:22;;;;;;;;;;;;;;;10.40;63.79;98686.47;5054154;28;19979;-78
2022/04/07 04:47:49;;;;;;;;;;;;;;;10.51;63.41;98683.28;5045123;28;19928;-78
2022/04/07 04:50:15;;;;;;;;;;;;;;;10.52;63.48;98678.03;5052888;28;20468;-77
2022/04/07 04:52:40;;;;;;;;;;;;;;;10.36;63.60;98670.22;5049691;28;19924;-77
2022/04/07 04:55:06;;;;;;;;;;;;;;;10.55;62.83;98674.41;5056582;28;19924;-77
2022/04/07 04:57:31;;;;;;;;;;;;;;;10.28;63.80;98677.56;5055385;28;19986;-77
2022/04/07 04:59:56;;;;;;;;;;;;;;;10.35;64.03;98673.72;5057546;28;20042;-75
2022/04/07 05:02:22;;;;;;;;;;;;;;;10.27;63.73;98665.50;5052128;28;20409;-75
2022/04/07 05:04:47;;;;;;;;;;;;;;;10.33;63.39;98666.94;5036362;28;20447;-75
2022/04/07 05:07:12;;;;;;;;;;;;;;;10.15;63.98;98658.38;5054442;28;20140;-75
2022/04/07 05:09:38;;;;;;;;;;;;;;;10.30;63.85;98654.13;5050386;28;20270;-77
2022/04/07 05:12:04;;;;;;;;;;;;;;;10.19;63.95;98639.13;5031761;28;19924;-77
2022/04/07 05:14:29;;;;;;;;;;;;;;;10.03;64.03;98637.41;5050655;28;19978;-77
2022/04/07 05:16:55;;;;;;;;;;;;;;;10.09;64.10;98622.38;5042397;28;20317;-77
2022/04/07 05:19:20;;;;;;;;;;;;;;;10.36;63.68;98618.31;5055319;28;20400;-75
2022/04/07 05:21:49;;;;;;;;;;;;;;;10.35;63.29;98627.00;5035024;28;20613;-78
2022/04/07 05:24:19;;;;;;;;;;;;;;;10.32;64.21;98615.94;5059511;28;20007;-77
2022/04/07 05:26:44;;;;;;;;;;;;;;;10.18;64.23;98611.50;5054566;28;20397;-75
2022/04/07 05:29:10;;;;;;;;;;;;;;;10.54;63.74;98600.88;5043564;28;20016;-75
2022/04/07 05:31:35;;;;;;;;;;;;;;;10.52;63.48;98601.91;5046257;28;20328;-77
2022/04/07 05:34:00;;;;;;;;;;;;;;;10.35;63.98;98605.41;5035093;28;19931;-77
2022/04/07 05:36:27;;;;;;;;;;;;;;;10.23;64.45;98595.66;5048829;28;20304;-75
2022/04/07 05:38:52;;;;;;;;;;;;;;;10.08;65.03;98594.75;5044143;28;19933;-78
2022/04/07 05:41:18;;;;;;;;;;;;;;;10.20;64.35;98575.09;5050184;28;20278;-78
2022/04/07 05:43:43;;;;;;;;;;;;;;;10.21;64.18;98577.59;5053977;28;19974;-78
2022/04/07 05:46:08;;;;;;;;;;;;;;;10.26;63.80;98572.16;5053407;28;19931;-79
2022/04/07 05:48:33;;;;;;;;;;;;;;;10.23;63.82;98578.34;5045045;28;20002;-75
2022/04/07 05:50:59;;;;;;;;;;;;;;;10.16;63.79;98561.47;5050021;28;19939;-78
2022/04/07 05:53:25;;;;;;;;;;;;;;;10.23;64.37;98567.13;5059593;28;19930;-78
2022/04/07 05:55:50;;;;;;;;;;;;;;;10.34;64.78;98560.44;5052579;28;19927;-78
2022/04/07 05:58:15;;;;;;;;;;;;;;;10.22;65.15;98557.69;5050788;28;20389;-75
2022/04/07 06:00:41;;;;;;;;;;;;;;;10.17;64.89;98555.34;5052779;28;19926;-77
2022/04/07 06:03:06;;;;;;;;;;;;;;;10.36;63.89;98550.81;5046153;28;19920;-77
2022/04/07 06:05:32;;;;;;;;;;;;;;;10.38;63.82;98541.19;5043283;28;20489;-78
2022/04/07 06:07:58;;;;;;;;;;;;;;;10.35;64.17;98538.75;5042241;28;19925;-78
2022/04/07 06:10:23;;;;;;;;;;;;;;;10.20;63.92;98528.38;5038241;28;19921;-78
2022/04/07 06:12:49;;;;;;;;;;;;;;;10.38;64.15;98527.38;5045341;28;19986;-78
2022/04/07 06:15:15;;;;;;;;;;;;;;;10.38;63.50;98520.41;5050374;28;19981;-78
2022/04/07 06:17:44;;;;;;;;;;;;;;;10.36;63.53;98517.09;5051730;28;19932;-79
2022/04/07 06:20:10;;;;;;;;;;;;;;;10.30;64.25;98509.63;5049578;28;19975;-75
2022/04/07 06:22:35;;;;;;;;;;;;;;;10.34;63.67;98518.91;5046729;28;19921;-77
2022/04/07 06:25:01;;;;;;;;;;;;;;;10.30;64.81;98507.06;5047807;28;19971;-78
2022/04/07 06:27:40;;;;;;;;;;;;;;;10.31;65.59;98489.72;5031180;28;19917;-78
2022/04/07 06:30:06;;;;;;;;;;;;;;;10.20;66.39;98492.06;5057567;28;19931;-78
2022/04/07 06:32:32;;;;;;;;;;;;;;;10.20;65.61;98492.91;5039175;28;19925;-77
2022/04/07 06:34:57;;;;;;;;;;;;;;;10.17;65.92;98474.91;5055665;28;19931;-78
2022/04/07 06:37:23;;;;;;;;;;;;;;;10.16;65.02;98468.06;5052045;28;19929;-77
2022/04/07 06:39:48;;;;;;;;;;;;;;;10.21;64.32;98452.22;5047658;28;20283;-75
2022/04/07 06:42:13;;;;;;;;;;;;;;;10.06;64.80;98455.69;5059222;28;20557;-77
2022/04/07 06:44:39;;;;;;;;;;;;;;;9.96;64.47;98451.94;5054188;28;19924;-75
2022/04/07 06:47:04;;;;;;;;;;;;;;;10.21;64.43;98439.25;5050072;28;20309;-75
2022/04/07 06:49:29;;;;;;;;;;;;;;;10.18;63.67;98434.25;5051376;28;20031;-78
2022/04/07 06:51:55;;;;;;;;;;;;;;;10.16;63.38;98430.91;5054911;28;20339;-77
2022/04/07 06:54:21;;;;;;;;;;;;;;;10.26;63.76;98419.06;5057919;28;19917;-78
2022/04/07 06:56:46;;;;;;;;;;;;;;;10.30;63.35;98418.81;5058573;28;19994;-78
2022/04/07 06:59:11;;;;;;;;;;;;;;;10.25;63.60;98407.88;5057203;28;19936;-77
2022/04/07 07:01:36;;;;;;;;;;;;;;;10.31;63.70;98399.75;5070336;28;20648;-78
2022/04/07 07:04:02;;;;;;;;;;;;;;;10.33;63.32;98397.03;5050796;28;19960;-77
2022/04/07 07:06:27;;;;;;;;;;;;;;;10.35;63.83;98388.25;5059762;28;19939;-78
2022/04/07 07:08:53;;;;;;;;;;;;;;;10.64;62.49;98370.97;5048001;28;20043;-75
2022/04/07 07:11:18;;;;;;;;;;;;;;;10.39;63.78;98365.56;5053012;28;19960;-77
2022/04/07 07:13:43;;;;;;;;;;;;;;;10.43;63.09;98354.88;5057046;28;19924;-77
2022/04/07 07:16:09;;;;;;;;;;;;;;;10.39;64.08;98349.97;5060549;28;19932;-77
2022/04/07 07:18:34;;;;;;;;;;;;;;;10.56;63.26;98343.78;5058495;28;19929;-76
2022/04/07 07:20:59;;;;;;;;;;;;;;;10.52;62.94;98342.31;5054434;28;19925;-77
2022/04/07 07:23:25;;;;;;;;;;;;;;;10.39;63.60;98324.88;5057594;28;19974;-77
2022/04/07 07:25:50;;;;;;;;;;;;;;;10.45;63.30;98329.69;5058063;28;19983;-77
2022/04/07 07:28:15;;;;;;;;;;;;;;;10.52;62.67;98318.97;5039613;28;19924;-75
2022/04/07 07:30:41;;;;;;;;;;;;;;;10.49;62.82;98319.13;5050586;28;19924;-75
2022/04/07 07:33:07;;;;;;;;;;;;;;;10.40;63.78;98303.16;5053406;28;20351;-77
2022/04/07 07:35:33;;;;;;;;;;;;;;;10.42;63.55;98280.56;5052144;28;19921;-78
2022/04/07 07:37:59;;;;;;;;;;;;;;;10.54;63.84;98272.97;5044480;28;19936;-78
2022/04/07 07:40:25;;;;;;;;;;;;;;;10.59;64.58;98270.91;5049726;28;19952;-77
2022/04/07 07:42:57;;;;;;;;;;;;;;;10.55;65.18;98262.50;5064943;28;19921;-77
2022/04/07 07:45:26;;;;;;;;;;;;;;;10.70;63.06;98252.94;5037449;28;20404;-75
2022/04/07 07:47:55;;;;;;;;;;;;;;;10.74;64.06;98242.25;5055092;28;19929;-74
2022/04/07 07:50:21;;;;;;;;;;;;;;;10.80;64.60;98222.88;5054873;28;19973;-77
2022/04/07 07:52:46;;;;;;;;;;;;;;;10.68;64.70;98203.69;5057279;28;19925;-77
2022/04/07 07:55:12;;;;;;;;;;;;;;;10.74;64.51;98197.28;5059393;28;20000;-75
2022/04/07 07:57:37;;;;;;;;;;;;;;;10.65;64.59;98200.44;5052225;28;20024;-77
2022/04/07 08:00:05;;;;;;;;;;;;;;;10.77;63.95;98192.75;5048489;28;20354;-77
2022/04/07 08:02:33;;;;;;;;;;;;;;;10.66;65.24;98182.19;5055678;28;20024;-78
2022/04/07 08:04:59;;;;;;;;;;;;;;;10.63;65.62;98178.94;5054767;28;19928;-78
2022/04/07 08:07:24;;;;;;;;;;;;;;;10.76;65.19;98175.47;5052512;28;19984;-78
2022/04/07 08:09:49;;;;;;;;;;;;;;;10.75;64.94;98162.63;5059040;28;20479;-77
2022/04/07 08:12:15;;;;;;;;;;;;;;;10.78;64.98;98160.66;5053616;28;20368;-77
2022/04/07 08:14:41;;;;;;;;;;;;;;;10.81;64.64;98154.44;5059637;28;20362;-75
2022/04/07 08:17:06;;;;;;;;;;;;;;;10.99;64.74;98138.53;5054054;28;19924;-78
2022/04/07 08:19:31;;;;;;;;;;;;;;;11.13;64.85;98152.38;5053930;28;19963;-78
2022/04/07 08:21:57;;;;;;;;;;;;;;;11.25;63.75;98147.22;5057573;28;19925;-78
2022/04/07 08:24:22;;;;;;;;;;;;;;;11.09;64.14;98158.72;5052703;28;19924;-78
2022/04/07 08:26:48;;;;;;;;;;;;;;;10.90;65.48;98167.69;5062589;28;19924;-75
2022/04/07 08:29:13;;;;;;;;;;;;;;;10.99;68.53;98148.91;5036068;28;19984;-77
2022/04/07 08:31:38;;;;;;;;;;;;;;;10.77;71.12;98151.19;5035973;28;19951;-75
2022/04/07 08:34:04;;;;;;;;;;;;;;;10.65;72.09;98161.50;5057351;28;20404;-75
2022/04/07 08:36:29;;;;;;;;;;;;;;;10.47;72.16;98151.34;5030401;28;19923;-77
2022/04/07 08:38:55;;;;;;;;;;;;;;;10.52;71.66;98156.28;5050139;28;19925;-77
2022/04/07 08:41:21;;;;;;;;;;;;;;;10.54;72.15;98146.63;5055142;28;19921;-78
2022/04/07 08:43:46;;;;;;;;;;;;;;;10.60;71.31;98127.22;5049281;28;19956;-78
2022/04/07 08:46:12;;;;;;;;;;;;;;;10.63;72.01;98127.03;5051320;28;20094;-77
2022/04/07 08:48:44;;;;;;;;;;;;;;;10.70;72.08;98121.34;5042064;28;20445;-77
2022/04/07 08:51:11;;;;;;;;;;;;;;;10.72;72.02;98110.88;5044127;28;19924;-77
2022/04/07 08:53:37;;;;;;;;;;;;;;;10.86;71.23;98100.44;5054399;28;19928;-77
2022/04/07 08:56:03;;;;;;;;;;;;;;;10.92;72.41;98102.63;5060143;28;20393;-77
2022/04/07 08:58:29;;;;;;;;;;;;;;;10.95;72.11;98108.47;5059836;28;19990;-77
2022/04/07 09:00:54;;;;;;;;;;;;;;;10.81;71.76;98103.34;5059807;28;19925;-77
2022/04/07 09:03:20;;;;;;;;;;;;;;;10.85;72.09;98085.81;5048311;28;19925;-77
2022/04/07 09:05:52;;;;;;;;;;;;;;;10.86;72.03;98071.88;5048741;28;19979;-77
2022/04/07 09:08:18;;;;;;;;;;;;;;;10.83;70.86;98069.47;5052570;28;20395;-77
2022/04/07 09:10:52;;;;;;;;;;;;;;;10.97;72.59;98072.84;5047086;28;19932;-78
2022/04/07 09:13:18;;;;;;;;;;;;;;;11.09;72.04;98065.19;5062552;28;19920;-78
2022/04/07 09:15:44;;;;;;;;;;;;;;;11.11;72.42;98042.53;5031988;28;19921;-75
2022/04/07 09:18:10;;;;;;;;;;;;;;;11.33;70.64;98047.97;5060178;28;20290;-75
2022/04/07 09:20:41;;;;;;;;;;;;;;;11.38;70.08;98046.72;5047004;28;19979;-75
2022/04/07 09:23:10;;;;;;;;;;;;;;;11.35;68.89;98022.75;5049226;28;19991;-75
2022/04/07 09:25:40;;;;;;;;;;;;;;;11.39;69.58;98026.78;5054337;28;19925;-77
2022/04/07 09:28:09;;;;;;;;;;;;;;;11.59;68.58;98017.63;5059944;28;19924;-77
2022/04/07 09:30:41;;;;;;;;;;;;;;;11.65;67.73;97999.81;5045877;28;19920;-77
2022/04/07 09:33:18;;;;;;;;;;;;;;;11.63;69.05;98008.66;5052498;28;19917;-77
2022/04/07 09:36:03;;;;;;;;;;;;;;;11.72;68.71;98005.44;5060390;28;19925;-77
2022/04/07 09:38:32;;;;;;;;;;;;;;;11.65;67.44;98006.81;5052286;28;20429;-77
2022/04/07 09:41:04;;;;;;;;;;;;;;;11.58;67.35;97998.59;5048006;28;20415;-75
2022/04/07 09:43:30;;;;;;;;;;;;;;;11.60;65.75;97991.53;5050232;28;19964;-76
2022/04/07 09:45:55;;;;;;;;;;;;;;;11.69;67.35;97997.84;5055109;28;19962;-78
2022/04/07 09:48:22;;;;;;;;;;;;;;;11.82;67.88;97985.66;5055008;28;20355;-77
2022/04/07 09:51:03;;;;;;;;;;;;;;;11.86;67.10;97981.94;5051590;28;19994;-77
2022/04/07 09:53:36;;;;;;;;;;;;;;;11.80;66.38;97984.97;5047555;28;19920;-77
2022/04/07 09:56:01;;;;;;;;;;;;;;;11.78;66.71;97986.81;5046902;28;20000;-77
2022/04/07 09:58:27;;;;;;;;;;;;;;;11.91;66.64;97985.03;5047217;28;19932;-77
2022/04/07 10:00:53;;;;;;;;;;;;;;;11.94;65.29;97964.84;5051887;28;19916;-77
2022/04/07 10:03:19;;;;;;;;;;;;;;;12.01;65.34;97973.00;5049787;28;20282;-75
2022/04/07 10:05:45;;;;;;;;;;;;;;;11.99;66.07;97967.09;5052176;28;19970;-75
2022/04/07 10:08:11;;;;;;;;;;;;;;;12.07;65.13;97962.16;5053833;28;19924;-75
2022/04/07 10:10:37;;;;;;;;;;;;;;;12.11;66.22;97968.81;5061462;28;19927;-75
2022/04/07 10:13:03;;;;;;;;;;;;;;;12.02;66.81;97972.09;5046215;28;19925;-78
2022/04/07 10:15:29;;;;;;;;;;;;;;;11.87;67.28;97992.22;5055082;28;20020;-77
2022/04/07 10:17:56;;;;;;;;;;;;;;;11.92;67.43;97995.31;5062816;28;20367;-77
2022/04/07 10:20:26;;;;;;;;;;;;;;;11.85;68.49;98001.06;5046472;28;19967;-78
2022/04/07 10:23:00;;;;;;;;;;;;;;;11.50;71.86;97987.91;5055534;28;20035;-78
2022/04/07 10:25:27;;;;;;;;;;;;;;;11.45;74.29;97980.41;5059903;28;19928;-78
2022/04/07 10:27:54;;;;;;;;;;;;;;;11.37;75.42;97980.09;5055476;28;19927;-75
2022/04/07 10:30:20;;;;;;;;;;;;;;;11.38;76.14;97971.34;5054203;28;19913;-77
2022/04/07 10:32:46;;;;;;;;;;;;;;;11.34;77.19;97967.31;5059256;28;20008;-78
2022/04/07 10:35:28;;;;;;;;;;;;;;;11.45;77.14;97977.81;5057656;28;20011;-78
2022/04/07 10:37:54;;;;;;;;;;;;;;;11.34;76.71;97980.31;5053025;28;19983;-78
2022/04/07 10:40:32;;;;;;;;;;;;;;;11.42;76.64;97993.63;5051530;28;21720;-78
2022/04/07 10:43:17;;;;;;;;;;;;;;;11.30;78.31;98009.19;5061475;28;20226;-75
2022/04/07 10:46:01;;;;;;;;;;;;;;;11.18;79.31;98013.44;5061850;28;19924;-77
2022/04/07 10:48:28;;;;;;;;;;;;;;;11.08;79.43;98045.34;5061237;28;19921;-76
2022/04/07 10:50:53;;;;;;;;;;;;;;;10.79;80.18;98107.78;5063296;28;19920;-74
2022/04/07 10:53:20;;;;;;;;;;;;;;;10.56;81.93;98111.00;5056254;28;20386;-75
2022/04/07 10:55:55;;;;;;;;;;;;;;;10.23;82.47;98106.16;5053699;28;19955;-75
2022/04/07 10:58:21;;;;;;;;;;;;;;;10.31;82.03;98095.31;5051049;28;19925;-74
2022/04/07 11:00:47;;;;;;;;;;;;;;;10.22;80.40;98099.31;5060020;28;20011;-76
2022/04/07 11:03:15;;;;;;;;;;;;;;;10.00;81.31;98098.94;5051734;28;20492;-76
2022/04/07 11:06:01;;;;;;;;;;;;;;;10.21;81.96;98104.59;5054335;28;19924;-74
2022/04/07 11:08:26;;;;;;;;;;;;;;;10.15;81.11;98103.19;5048394;28;19983;-78
2022/04/07 11:10:53;;;;;;;;;;;;;;;10.20;79.23;98116.72;5056886;28;19925;-80
2022/04/07 11:13:38;;;;;;;;;;;;;;;10.19;81.47;98122.84;5054274;28;19927;-80
2022/04/07 11:16:12;;;;;;;;;;;;;;;9.84;80.19;98122.34;5047185;28;20381;-78
2022/04/07 11:18:44;;;;;;;;;;;;;;;10.21;81.06;98123.59;5054070;28;19960;-78
2022/04/07 11:21:10;;;;;;;;;;;;;;;10.32;81.13;98125.50;5054910;28;19921;-80
2022/04/07 11:23:40;;;;;;;;;;;;;;;10.44;79.71;98145.50;5051292;28;20270;-78
2022/04/07 11:26:09;;;;;;;;;;;;;;;10.06;80.38;98158.22;5056089;28;19925;-78
2022/04/07 11:28:37;;;;;;;;;;;;;;;10.10;81.00;98158.88;5044277;28;19967;-78
2022/04/07 11:31:04;;;;;;;;;;;;;;;10.29;80.60;98142.09;5063293;28;19951;-78
2022/04/07 11:33:30;;;;;;;;;;;;;;;10.18;80.18;98159.25;5055829;28;19932;-79
2022/04/07 11:35:58;;;;;;;;;;;;;;;10.13;74.74;98145.72;5048628;28;19966;-79
2022/04/07 11:38:47;;;;;;;;;;;;;;;10.04;72.94;98139.34;5055342;28;20467;-79
2022/04/07 11:41:18;;;;;;;;;;;;;;;10.22;75.36;98150.38;5043866;28;19950;-75
2022/04/07 11:43:48;;;;;;;;;;;;;;;10.01;75.80;98143.88;5057207;28;20436;-75
2022/04/07 11:46:14;;;;;;;;;;;;;;;10.21;77.35;98154.72;5055483;28;19986;-80
2022/04/07 11:48:40;;;;;;;;;;;;;;;10.31;76.27;98153.25;5046988;28;19921;-79
2022/04/07 11:51:13;;;;;;;;;;;;;;;10.14;77.21;98148.22;5057613;28;19928;-79
2022/04/07 11:53:39;;;;;;;;;;;;;;;10.22;74.27;98140.00;5056698;28;20332;-75
2022/04/07 11:56:32;;;;;;;;;;;;;;;10.39;74.65;98151.00;5049567;28;20016;-75
2022/04/07 11:59:01;;;;;;;;;;;;;;;10.56;73.63;98136.97;5057895;28;20071;-75
2022/04/07 12:01:28;;;;;;;;;;;;;;;10.42;70.39;98153.41;5061708;28;19943;-74
2022/04/07 12:03:54;;;;;;;;;;;;;;;10.49;69.87;98159.06;5059648;28;20388;-79
2022/04/07 12:06:30;;;;;;;;;;;;;;;10.54;69.61;98157.00;5061811;28;19920;-79
2022/04/07 12:08:56;;;;;;;;;;;;;;;10.50;67.11;98172.84;5054415;28;19935;-79
2022/04/07 12:11:22;;;;;;;;;;;;;;;10.40;67.17;98183.78;5035574;28;19925;-77
2022/04/07 12:13:52;;;;;;;;;;;;;;;10.31;64.42;98158.44;5057947;28;20344;-77
2022/04/07 12:16:18;;;;;;;;;;;;;;;10.56;65.26;98162.91;5058795;28;20410;-74
2022/04/07 12:18:54;;;;;;;;;;;;;;;10.63;63.58;98171.16;5053751;28;19927;-74
2022/04/07 12:21:19;;;;;;;;;;;;;;;10.71;62.82;98174.09;5058055;28;19921;-74
2022/04/07 12:23:47;;;;;;;;;;;;;;;10.57;63.39;98193.16;5054772;28;19974;-78
2022/04/07 12:26:13;;;;;;;;;;;;;;;10.56;61.37;98196.66;5037851;28;19962;-74
2022/04/07 12:28:39;;;;;;;;;;;;;;;10.65;58.42;98193.50;5057002;28;19964;-74
2022/04/07 12:31:09;;;;;;;;;;;;;;;10.56;61.93;98178.50;5045905;28;20617;-74
2022/04/07 12:33:38;;;;;;;;;;;;;;;10.67;64.02;98196.81;5044387;28;19928;-75
2022/04/07 12:36:04;;;;;;;;;;;;;;;10.70;57.58;98196.63;5053413;28;19924;-74
2022/04/07 12:38:29;;;;;;;;;;;;;;;10.72;59.34;98201.75;5053680;28;19936;-77
2022/04/07 12:40:54;;;;;;;;;;;;;;;10.75;58.86;98217.13;5054461;28;20467;-77
2022/04/07 12:43:20;;;;;;;;;;;;;;;10.79;54.20;98203.84;5052730;28;19931;-77
2022/04/07 12:45:57;;;;;;;;;;;;;;;10.86;55.75;98202.56;5044628;28;20438;-77